Time;durP1;ratioP1;P1;durP2;ratioP2;P2;SDS_P1;SDS_P2;PMS_P1;PMS_P2;Temp;Humidity;BMP_temperature;BMP_pressure;BME280_temperature;BME280_humidity;BME280_pressure;Samples;Min_cycle;Max_cycle;Signal;HPM_P1;HPM_P2
2021/03/05 00:00:06;;;;;;;4.78;1.20;;;;;;;1.61;93.02;101652.84;4987528;28;20049;-76
2021/03/05 00:02:38;;;;;;;3.90;1.05;;;;;;;1.90;90.93;101651.16;4963865;28;20045;-76
2021/03/05 00:05:05;;;;;;;2.80;1.13;;;;;;;1.93;90.83;101650.63;4972765;28;20402;-76
2021/03/05 00:07:30;;;;;;;5.22;1.40;;;;;;;1.94;90.61;101656.72;4964686;28;20089;-75
2021/03/05 00:09:56;;;;;;;3.13;1.05;;;;;;;1.85;91.45;101659.16;4972477;28;20439;-77
2021/03/05 00:12:21;;;;;;;3.50;1.25;;;;;;;1.71;90.80;101658.94;4972113;28;20030;-75
2021/03/05 00:14:47;;;;;;;5.70;1.30;;;;;;;1.47;92.57;101668.53;4966187;28;20399;-76
2021/03/05 00:17:13;;;;;;;4.93;1.52;;;;;;;1.49;93.09;101679.69;4960971;28;20035;-77
2021/03/05 00:19:39;;;;;;;2.65;1.20;;;;;;;1.56;92.26;101677.56;4970356;28;20030;-77
2021/03/05 00:22:08;;;;;;;6.07;1.60;;;;;;;1.54;93.07;101681.53;4972452;28;20038;-77
2021/03/05 00:24:34;;;;;;;3.78;1.45;;;;;;;1.55;92.81;101681.25;4968824;28;20038;-77
2021/03/05 00:27:00;;;;;;;3.58;1.58;;;;;;;1.73;91.88;101683.34;4971714;28;20109;-75
2021/03/05 00:29:25;;;;;;;4.85;1.58;;;;;;;1.68;91.86;101675.38;4972023;28;20413;-77
2021/03/05 00:31:51;;;;;;;3.47;1.52;;;;;;;1.59;91.88;101690.28;4969362;28;20035;-77
2021/03/05 00:34:16;;;;;;;5.53;1.33;;;;;;;1.62;92.06;101692.41;4973906;28;20030;-76
2021/03/05 00:36:42;;;;;;;11.75;1.85;;;;;;;1.62;91.92;101694.25;4968021;28;20110;-76
2021/03/05 00:39:07;;;;;;;3.95;1.48;;;;;;;1.54;92.08;101687.66;4967887;28;20426;-77
2021/03/05 00:41:35;;;;;;;5.32;1.35;;;;;;;1.59;92.00;101694.78;4971239;28;20037;-76
2021/03/05 00:44:00;;;;;;;7.35;1.60;;;;;;;1.43;92.36;101695.91;4971696;28;20035;-76
2021/03/05 00:46:26;;;;;;;6.22;1.42;;;;;;;1.40;92.48;101697.22;4958753;28;20078;-76
2021/03/05 00:48:51;;;;;;;3.25;1.35;;;;;;;1.44;92.91;101700.94;4969718;28;20050;-77
2021/03/05 00:51:17;;;;;;;3.85;1.27;;;;;;;1.43;91.85;101698.56;4971181;28;20027;-76
2021/03/05 00:53:42;;;;;;;6.05;1.60;;;;;;;1.42;91.69;101702.25;4972295;28;20085;-77
2021/03/05 00:56:11;;;;;;;2.25;1.27;;;;;;;1.63;91.40;101707.25;4970778;28;20042;-77
2021/03/05 00:58:37;;;;;;;2.67;1.20;;;;;;;1.91;89.66;101705.06;4953280;28;20682;-77
2021/03/05 01:01:05;;;;;;;2.03;1.00;;;;;;;2.00;88.57;101714.06;4985072;28;20037;-76
2021/03/05 01:03:31;;;;;;;3.35;1.20;;;;;;;2.00;88.00;101725.47;4965654;28;20491;-77
2021/03/05 01:05:56;;;;;;;4.43;1.17;;;;;;;2.00;88.36;101729.97;4971887;28;20046;-77
2021/03/05 01:08:22;;;;;;;2.85;1.25;;;;;;;1.98;88.45;101716.97;4969611;28;20023;-76
2021/03/05 01:10:50;;;;;;;4.88;1.50;;;;;;;1.90;88.39;101722.06;4968448;28;20031;-76
2021/03/05 01:13:16;;;;;;;4.38;1.30;;;;;;;1.80;89.31;101736.16;4970978;28;20061;-76
2021/03/05 01:15:42;;;;;;;3.40;1.23;;;;;;;1.75;89.20;101728.19;4971160;28;20122;-76
2021/03/05 01:18:07;;;;;;;4.38;1.20;;;;;;;1.83;89.31;101727.66;4969630;28;20507;-77
2021/03/05 01:20:33;;;;;;;4.90;0.93;;;;;;;1.74;89.72;101730.06;4971211;28;20101;-77
2021/03/05 01:22:59;;;;;;;2.20;1.15;;;;;;;1.57;90.84;101729.56;4971628;28;20563;-76
2021/03/05 01:25:27;;;;;;;3.63;1.20;;;;;;;1.56;91.45;101729.84;4969164;28;20110;-76
2021/03/05 01:27:53;;;;;;;7.40;1.70;;;;;;;1.26;92.03;101733.28;4961498;28;20027;-77
2021/03/05 01:30:19;;;;;;;6.38;1.40;;;;;;;1.26;93.35;101741.25;4957742;28;20522;-77
2021/03/05 01:32:46;;;;;;;5.30;1.23;;;;;;;1.32;92.72;101736.75;4974723;28;20031;-76
2021/03/05 01:35:14;;;;;;;8.48;1.70;;;;;;;1.11;93.07;101743.09;4968268;28;20061;-76
2021/03/05 01:37:40;;;;;;;3.25;1.17;;;;;;;1.33;93.15;101741.81;4971138;28;20027;-76
2021/03/05 01:40:13;;;;;;;4.03;1.10;;;;;;;1.50;91.86;101746.81;4962851;28;20039;-77
2021/03/05 01:42:40;;;;;;;4.57;1.27;;;;;;;1.58;90.98;101736.47;4966690;28;20050;-76
2021/03/05 01:45:08;;;;;;;2.35;1.20;;;;;;;1.61;91.03;101746.53;4983700;28;20114;-76
2021/03/05 01:47:34;;;;;;;2.03;1.23;;;;;;;1.54;90.76;101743.38;4996383;23;20042;-72
2021/03/05 01:50:00;;;;;;;3.88;1.48;;;;;;;1.58;90.48;101746.28;4986068;28;20069;-73
2021/03/05 01:52:25;;;;;;;2.22;1.10;;;;;;;1.30;91.52;101744.97;4991109;28;20049;-73
2021/03/05 01:54:51;;;;;;;3.60;1.10;;;;;;;1.37;91.57;101742.88;4990260;28;20038;-73
2021/03/05 01:57:16;;;;;;;6.05;1.35;;;;;;;1.08;92.82;101751.59;4975837;28;20027;-73
2021/03/05 01:59:42;;;;;;;6.03;1.35;;;;;;;0.87;93.68;101758.75;4976027;28;20479;-73
2021/03/05 02:02:08;;;;;;;6.00;1.00;;;;;;;1.32;93.01;101752.66;4966596;28;20709;-73
2021/03/05 02:04:35;;;;;;;3.97;0.90;;;;;;;1.12;92.45;101750.81;4970671;28;20035;-73
2021/03/05 02:07:03;;;;;;;2.67;1.00;;;;;;;1.02;93.47;101755.31;4979344;28;20077;-72
2021/03/05 02:09:29;;;;;;;9.25;1.30;;;;;;;0.97;93.70;101758.72;4976242;28;20038;-73
2021/03/05 02:11:54;;;;;;;4.90;1.15;;;;;;;1.26;93.00;101756.41;4973049;28;20042;-73
2021/03/05 02:14:20;;;;;;;4.47;1.20;;;;;;;1.45;91.29;101754.78;4969397;28;20038;-73
2021/03/05 02:16:58;;;;;;;4.03;1.00;;;;;;;1.20;92.15;101757.44;4976019;28;20057;-73
2021/03/05 02:19:42;;;;;;;5.13;1.27;;;;;;;0.83;94.24;101761.09;4973441;28;20415;-73
2021/03/05 02:22:32;;;;;;;6.22;1.10;;;;;;;1.19;92.19;101764.59;4979773;28;20035;-73
2021/03/05 02:25:13;;;;;;;5.45;1.20;;;;;;;1.03;93.09;101772.81;4975554;28;20062;-72
2021/03/05 02:28:15;;;;;;;3.00;1.08;;;;;;;1.03;93.29;101770.16;4967260;28;20060;-74
2021/03/05 02:30:56;;;;;;;5.43;1.08;;;;;;;1.30;92.13;101770.69;4971021;28;20078;-73
2021/03/05 02:33:36;;;;;;;7.28;1.65;;;;;;;0.99;92.62;101775.19;4958390;28;20043;-73
2021/03/05 02:36:05;;;;;;;6.07;1.35;;;;;;;0.77;93.83;101772.75;4984225;28;20038;-73
2021/03/05 02:38:32;;;;;;;2.95;1.27;;;;;;;0.77;95.01;101774.63;4974947;28;20042;-73
2021/03/05 02:40:59;;;;;;;3.45;1.10;;;;;;;0.73;95.37;101779.66;4965129;28;20046;-74
2021/03/05 02:43:27;;;;;;;3.92;1.13;;;;;;;0.66;95.90;101783.56;4973521;28;20049;-72
2021/03/05 02:46:02;;;;;;;4.40;1.35;;;;;;;0.66;95.44;101779.09;4990660;28;20034;-73
2021/03/05 02:48:36;;;;;;;3.97;0.90;;;;;;;0.64;95.43;101780.41;4977649;28;20135;-73
2021/03/05 02:51:02;;;;;;;8.45;1.40;;;;;;;0.60;95.71;101784.66;4977830;28;20573;-73
2021/03/05 02:53:29;;;;;;;7.28;1.23;;;;;;;0.57;96.12;101793.09;4985794;28;20491;-72
2021/03/05 02:56:01;;;;;;;2.90;1.27;;;;;;;0.63;95.75;101792.06;4970890;28;20047;-72
2021/03/05 02:58:29;;;;;;;5.50;1.33;;;;;;;0.89;94.65;101793.75;4971192;28;20134;-73
2021/03/05 03:00:56;;;;;;;4.28;1.35;;;;;;;1.07;93.18;101784.47;4976711;28;20043;-73
2021/03/05 03:03:22;;;;;;;3.22;0.93;;;;;;;1.22;91.67;101781.84;4985832;28;20073;-73
2021/03/05 03:05:52;;;;;;;3.30;1.10;;;;;;;1.03;92.46;101784.19;4972122;28;20035;-73
2021/03/05 03:08:20;;;;;;;2.58;1.02;;;;;;;0.93;93.38;101786.81;4979779;28;20466;-73
2021/03/05 03:10:47;;;;;;;5.55;1.13;;;;;;;0.67;94.29;101791.28;4979875;28;20043;-73
2021/03/05 03:13:13;;;;;;;3.17;1.00;;;;;;;0.55;95.77;101797.84;4970129;28;20026;-73
2021/03/05 03:15:40;;;;;;;3.75;1.08;;;;;;;0.71;94.70;101797.66;4970849;28;20031;-72
2021/03/05 03:18:10;;;;;;;5.18;1.30;;;;;;;0.64;95.52;101797.09;4975792;28;20050;-73
2021/03/05 03:20:37;;;;;;;5.53;1.10;;;;;;;0.72;94.83;101806.38;4985928;28;20491;-73
2021/03/05 03:23:03;;;;;;;4.72;1.30;;;;;;;0.81;94.24;101804.84;4977447;28;20026;-73
2021/03/05 03:25:29;;;;;;;3.08;1.17;;;;;;;0.73;94.32;101800.84;4982966;28;20038;-74
2021/03/05 03:27:54;;;;;;;5.38;1.02;;;;;;;0.61;95.07;101797.63;4976739;28;20097;-73
2021/03/05 03:30:21;;;;;;;3.15;1.25;;;;;;;1.04;92.55;101803.56;4970188;28;20109;-73
2021/03/05 03:32:47;;;;;;;6.57;1.42;;;;;;;1.09;91.53;101806.22;4974085;28;20092;-72
2021/03/05 03:35:14;;;;;;;4.95;1.17;;;;;;;1.15;91.17;101808.63;4954802;28;20070;-73
2021/03/05 03:37:41;;;;;;;3.08;1.02;;;;;;;1.19;91.25;101803.59;4969513;28;20133;-73
2021/03/05 03:40:15;;;;;;;5.38;1.30;;;;;;;1.08;91.76;101802.78;4986163;28;20478;-73
2021/03/05 03:42:42;;;;;;;4.13;1.10;;;;;;;0.84;92.19;101813.06;4976279;28;20049;-74
2021/03/05 03:45:10;;;;;;;2.80;1.13;;;;;;;0.82;93.39;101815.19;4975264;28;20058;-74
2021/03/05 03:47:37;;;;;;;5.13;1.45;;;;;;;1.00;92.26;101824.50;4964386;28;20030;-73
2021/03/05 03:50:06;;;;;;;2.95;1.20;;;;;;;1.08;91.56;101828.50;4972870;28;20047;-73
2021/03/05 03:52:42;;;;;;;3.38;1.30;;;;;;;0.95;92.05;101837.72;4971346;28;20034;-73
2021/03/05 03:55:09;;;;;;;9.85;1.50;;;;;;;0.96;91.73;101835.88;4969525;28;20070;-73
2021/03/05 03:57:39;;;;;;;5.35;1.55;;;;;;;1.05;91.99;101840.41;4988305;28;20400;-73
2021/03/05 04:00:06;;;;;;;5.03;1.23;;;;;;;1.00;91.99;101840.41;4972938;28;20117;-73
2021/03/05 04:02:38;;;;;;;3.92;1.25;;;;;;;1.09;91.45;101836.19;4957369;28;20043;-73
2021/03/05 04:05:11;;;;;;;6.97;1.50;;;;;;;0.90;92.06;101838.53;4971716;28;20031;-73
2021/03/05 04:07:42;;;;;;;5.90;1.30;;;;;;;0.90;92.91;101841.19;4972671;28;20119;-73
2021/03/05 04:10:08;;;;;;;9.73;1.58;;;;;;;1.02;92.34;101838.31;4972065;28;20069;-74
2021/03/05 04:12:34;;;;;;;7.78;1.55;;;;;;;1.00;91.84;101839.63;4966127;28;20113;-74
2021/03/05 04:15:00;;;;;;;4.07;1.20;;;;;;;0.98;91.87;101844.38;4972206;28;20070;-73
2021/03/05 04:17:27;;;;;;;4.28;1.30;;;;;;;0.97;91.89;101859.47;4975518;28;20057;-73
2021/03/05 04:19:53;;;;;;;2.13;1.35;;;;;;;0.95;92.26;101856.28;4978866;28;20030;-73
2021/03/05 04:22:20;;;;;;;6.68;1.45;;;;;;;0.92;92.65;101859.47;4972629;28;20054;-72
2021/03/05 04:24:46;;;;;;;4.07;1.48;;;;;;;0.94;92.13;101852.06;4972619;28;20046;-74
2021/03/05 04:27:11;;;;;;;4.45;1.23;;;;;;;0.85;92.96;101867.66;4957845;28;20432;-73
2021/03/05 04:29:37;;;;;;;7.15;1.50;;;;;;;0.93;92.91;101863.72;4974908;28;20038;-73
2021/03/05 04:32:03;;;;;;;8.43;1.42;;;;;;;0.95;92.13;101864.25;4977091;28;20031;-74
2021/03/05 04:34:29;;;;;;;4.30;1.27;;;;;;;0.93;92.56;101873.53;4968125;28;20391;-73
2021/03/05 04:36:55;;;;;;;4.60;1.38;;;;;;;0.92;92.55;101872.72;4971457;28;20039;-73
2021/03/05 04:39:20;;;;;;;6.13;1.52;;;;;;;0.88;92.57;101882.25;4971135;28;20082;-73
2021/03/05 04:41:46;;;;;;;7.43;1.58;;;;;;;0.84;93.20;101875.88;4970867;28;20046;-74
2021/03/05 04:44:12;;;;;;;6.85;1.58;;;;;;;0.62;93.47;101886.66;4973746;28;20046;-73
2021/03/05 04:46:37;;;;;;;5.68;1.83;;;;;;;0.53;95.05;101880.25;4973523;28;20104;-73
2021/03/05 04:49:04;;;;;;;3.88;1.65;;;;;;;0.58;94.01;101879.50;4982023;28;20117;-73
2021/03/05 04:51:29;;;;;;;5.47;1.60;;;;;;;0.69;94.11;101886.41;4961008;28;20031;-73
2021/03/05 04:53:55;;;;;;;4.22;1.58;;;;;;;0.63;94.36;101895.41;4966767;28;20061;-74
2021/03/05 04:56:20;;;;;;;8.30;1.70;;;;;;;0.58;94.04;101890.09;4967102;28;20066;-74
2021/03/05 04:58:46;;;;;;;9.07;1.58;;;;;;;0.62;94.79;101896.47;4963281;28;20053;-73
2021/03/05 05:01:11;;;;;;;7.93;1.50;;;;;;;0.82;92.91;101909.78;4962161;28;20062;-73
2021/03/05 05:03:36;;;;;;;8.70;1.80;;;;;;;0.54;94.28;101910.19;4973418;28;20023;-73
2021/03/05 05:06:02;;;;;;;5.72;1.50;;;;;;;0.50;95.46;101906.47;4975214;28;20400;-74
2021/03/05 05:08:27;;;;;;;5.13;1.52;;;;;;;0.46;94.50;101916.78;4972177;28;20098;-74
2021/03/05 05:10:53;;;;;;;3.63;1.60;;;;;;;0.70;93.65;101909.19;4971237;28;20034;-74
2021/03/05 05:13:18;;;;;;;5.50;1.60;;;;;;;0.49;94.07;101923.41;4986048;28;20037;-73
2021/03/05 05:15:44;;;;;;;5.03;1.60;;;;;;;0.67;93.92;101928.28;4983542;28;20031;-74
2021/03/05 05:18:09;;;;;;;6.22;1.92;;;;;;;0.72;93.28;101925.66;4971968;28;20085;-74
2021/03/05 05:20:35;;;;;;;3.30;1.58;;;;;;;0.73;93.10;101929.91;4972863;28;20150;-73
2021/03/05 05:23:00;;;;;;;5.47;1.60;;;;;;;0.64;93.23;101937.53;4978464;28;20042;-74
2021/03/05 05:25:26;;;;;;;5.85;2.03;;;;;;;0.63;93.55;101937.78;4968000;28;20046;-72
2021/03/05 05:27:51;;;;;;;5.35;1.65;;;;;;;0.61;93.45;101946.00;4983733;28;20031;-72
2021/03/05 05:30:17;;;;;;;5.28;1.83;;;;;;;0.67;93.32;101937.03;4960596;28;20177;-73
2021/03/05 05:32:42;;;;;;;4.53;1.65;;;;;;;0.67;92.90;101950.28;4957745;28;20495;-73
2021/03/05 05:35:29;;;;;;;2.78;1.73;;;;;;;0.69;93.31;101950.81;4966001;28;20027;-73
2021/03/05 05:37:54;;;;;;;5.45;1.90;;;;;;;0.70;93.40;101959.56;4934792;29;20044;-73
2021/03/05 05:40:20;;;;;;;3.28;1.50;;;;;;;0.64;92.79;101955.31;4925192;29;20525;-74
2021/03/05 05:42:49;;;;;;;8.50;1.95;;;;;;;0.63;93.52;101961.63;4929952;29;20079;-74
2021/03/05 05:45:15;;;;;;;9.05;1.88;;;;;;;0.67;93.54;101960.88;4930352;29;20047;-74
2021/03/05 05:47:43;;;;;;;6.07;1.90;;;;;;;0.55;93.65;101968.22;4928356;29;20036;-73
2021/03/05 05:50:09;;;;;;;6.55;1.92;;;;;;;0.61;93.81;101958.44;4927855;29;20055;-73
2021/03/05 05:52:36;;;;;;;5.40;2.15;;;;;;;0.48;94.01;101961.56;4929751;29;20559;-73
2021/03/05 05:55:07;;;;;;;6.68;2.60;;;;;;;0.46;94.37;101963.66;4929868;29;20090;-74
2021/03/05 05:57:35;;;;;;;6.97;2.08;;;;;;;0.31;94.65;101971.50;4925492;29;20079;-72
2021/03/05 06:00:01;;;;;;;9.57;2.40;;;;;;;0.44;94.34;101965.75;4928831;29;20122;-73
2021/03/05 06:02:27;;;;;;;6.82;2.10;;;;;;;0.24;94.92;101961.09;4926648;29;20148;-74
2021/03/05 06:04:56;;;;;;;4.97;2.08;;;;;;;0.35;95.01;101969.94;4926508;29;20042;-73
2021/03/05 06:07:23;;;;;;;3.70;2.28;;;;;;;0.35;95.37;101968.06;4897709;29;20393;-74
2021/03/05 06:09:52;;;;;;;8.05;2.45;;;;;;;0.37;94.42;101965.19;4928889;29;20047;-74
2021/03/05 06:12:18;;;;;;;4.00;2.00;;;;;;;0.35;95.44;101972.59;4929516;29;20086;-73
2021/03/05 06:14:45;;;;;;;7.07;2.30;;;;;;;0.29;95.38;101971.72;4950067;28;20295;-73
2021/03/05 06:17:11;;;;;;;7.25;2.40;;;;;;;0.29;95.15;101981.53;4963911;28;20787;-74
2021/03/05 06:19:38;;;;;;;7.40;2.30;;;;;;;0.41;95.35;101982.16;4966244;28;20030;-73
2021/03/05 06:22:18;;;;;;;10.05;2.72;;;;;;;0.48;95.02;101983.56;4974548;28;20092;-74
2021/03/05 06:24:44;;;;;;;8.48;2.45;;;;;;;0.58;93.79;101990.78;4975177;28;20496;-73
2021/03/05 06:27:10;;;;;;;9.38;3.20;;;;;;;0.57;94.28;101984.66;4969228;28;20101;-72
2021/03/05 06:29:47;;;;;;;9.60;3.97;;;;;;;0.51;94.28;101987.53;4983701;28;20035;-74
2021/03/05 06:32:15;;;;;;;9.13;3.78;;;;;;;0.63;93.89;101990.78;4975290;28;20031;-73
2021/03/05 06:34:48;;;;;;;11.80;4.18;;;;;;;0.57;94.69;102005.06;4958359;28;20094;-73
2021/03/05 06:37:15;;;;;;;18.15;5.78;;;;;;;0.55;94.36;102004.50;4972788;28;20043;-73
2021/03/05 06:39:41;;;;;;;17.08;7.28;;;;;;;0.35;95.52;101999.84;4971647;28;20035;-74
2021/03/05 06:42:09;;;;;;;17.10;7.00;;;;;;;0.23;96.16;101998.44;4966216;28;20042;-72
2021/03/05 06:44:40;;;;;;;19.75;6.03;;;;;;;0.47;96.75;102008.44;4976819;28;20042;-74
2021/03/05 06:47:13;;;;;;;20.65;5.57;;;;;;;0.44;95.53;102005.50;4984337;28;20499;-73
2021/03/05 06:49:39;;;;;;;19.00;4.43;;;;;;;0.19;96.51;102011.41;4980040;28;20454;-74
2021/03/05 06:52:05;;;;;;;10.48;3.55;;;;;;;0.19;97.16;102016.69;4966882;28;20488;-74
2021/03/05 06:54:36;;;;;;;10.27;3.42;;;;;;;0.33;96.91;102017.06;4964569;28;20031;-73
2021/03/05 06:57:04;;;;;;;9.75;3.17;;;;;;;0.01;97.84;102022.34;4971584;28;20061;-74
2021/03/05 06:59:37;;;;;;;7.20;2.47;;;;;;;0.10;98.31;102022.69;4981856;28;20038;-73
2021/03/05 07:02:04;;;;;;;6.28;2.35;;;;;;;0.37;97.95;102020.81;4964003;28;20558;-73
2021/03/05 07:04:31;;;;;;;8.20;2.88;;;;;;;0.56;96.43;102022.00;4967319;28;20093;-74
2021/03/05 07:07:04;;;;;;;10.20;2.85;;;;;;;0.40;96.80;102039.63;4980836;28;20062;-75
2021/03/05 07:09:38;;;;;;;6.28;2.40;;;;;;;0.30;97.42;102036.91;4973225;28;20038;-75
2021/03/05 07:12:09;;;;;;;6.72;2.60;;;;;;;0.33;97.67;102043.56;4980967;28;20451;-74
2021/03/05 07:14:36;;;;;;;7.68;2.00;;;;;;;0.31;97.74;102045.66;4967822;28;20077;-74
2021/03/05 07:17:03;;;;;;;5.50;2.67;;;;;;;0.39;98.50;102050.47;4969978;28;20031;-73
2021/03/05 07:19:30;;;;;;;6.55;2.25;;;;;;;0.64;97.63;102056.00;4984829;28;20034;-74
2021/03/05 07:21:56;;;;;;;5.78;2.63;;;;;;;0.87;95.78;102058.28;4975261;28;20117;-74
2021/03/05 07:24:23;;;;;;;7.03;2.60;;;;;;;0.82;96.08;102055.56;4979365;28;20034;-74
2021/03/05 07:26:54;;;;;;;8.07;2.50;;;;;;;0.72;96.21;102052.84;4972543;28;20034;-75
2021/03/05 07:29:28;;;;;;;8.03;2.47;;;;;;;0.81;96.35;102057.41;4973669;28;20066;-74
2021/03/05 07:32:01;;;;;;;4.95;2.38;;;;;;;0.87;95.89;102064.34;4962847;28;20509;-74
2021/03/05 07:34:28;;;;;;;4.60;2.45;;;;;;;1.01;95.97;102072.66;4968969;28;20054;-73
2021/03/05 07:36:57;;;;;;;6.10;2.45;;;;;;;1.21;95.88;102077.31;4964555;28;20126;-72
2021/03/05 07:39:25;;;;;;;6.32;2.25;;;;;;;1.19;95.36;102082.06;4961193;28;20041;-73
2021/03/05 07:41:52;;;;;;;8.45;2.20;;;;;;;1.41;95.58;102072.91;4967729;28;20049;-74
2021/03/05 07:44:19;;;;;;;9.70;2.67;;;;;;;1.60;94.15;102070.59;4964272;28;20068;-74
2021/03/05 07:46:45;;;;;;;7.18;2.80;;;;;;;2.15;94.13;102080.59;4953415;28;20945;-72
2021/03/05 07:49:12;;;;;;;13.57;3.25;;;;;;;2.36;91.61;102079.56;5007781;23;20122;-76
2021/03/05 07:51:39;;;;;;;12.10;1.95;;;;;;;2.24;89.71;102092.28;4969420;28;20109;-77
2021/03/05 07:54:05;;;;;;;8.07;2.25;;;;;;;2.83;90.58;102085.41;4968440;28;20059;-77
2021/03/05 07:56:49;;;;;;;14.10;2.92;;;;;;;3.47;87.55;102091.66;4971540;28;20031;-77
2021/03/05 07:59:36;;;;;;;14.45;2.47;;;;;;;3.52;85.67;102090.84;4968871;28;20407;-77
2021/03/05 08:02:02;;;;;;;8.70;2.15;;;;;;;3.76;84.82;102088.34;4977852;28;20122;-76
2021/03/05 08:04:49;;;;;;;3.53;1.60;;;;;;;3.26;84.13;102090.13;4962158;28;20118;-76
2021/03/05 08:07:36;;;;;;;6.30;1.50;;;;;;;3.80;83.87;102106.19;4985190;28;20125;-77
2021/03/05 08:10:03;;;;;;;4.25;1.60;;;;;;;4.04;82.54;102109.00;4978540;28;20035;-76
2021/03/05 08:12:37;;;;;;;8.40;1.65;;;;;;;4.67;81.50;102105.38;4959812;28;20543;-77
2021/03/05 08:15:09;;;;;;;8.05;1.45;;;;;;;4.93;80.55;102113.97;4963945;28;20054;-76
2021/03/05 08:17:43;;;;;;;5.93;1.90;;;;;;;5.15;78.32;102123.09;4958938;28;20043;-77
2021/03/05 08:20:28;;;;;;;5.40;2.20;;;;;;;5.15;77.43;102128.44;4960796;28;20042;-77
2021/03/05 08:22:56;;;;;;;5.10;1.63;;;;;;;5.19;78.05;102128.66;4960650;28;20051;-76
2021/03/05 08:25:24;;;;;;;3.17;1.55;;;;;;;5.43;76.00;102129.50;4962925;28;20101;-76
2021/03/05 08:27:50;;;;;;;6.78;1.73;;;;;;;5.66;75.04;102122.56;4963614;28;20034;-76
2021/03/05 08:30:19;;;;;;;3.67;1.80;;;;;;;5.93;74.45;102134.28;4965618;28;20495;-76
2021/03/05 08:32:48;;;;;;;4.38;1.88;;;;;;;6.07;73.21;102137.84;4972392;28;20117;-76
2021/03/05 08:35:29;;;;;;;5.60;2.25;;;;;;;6.43;72.64;102146.16;4964264;28;20035;-77
2021/03/05 08:37:57;;;;;;;8.63;2.20;;;;;;;6.62;70.30;102140.81;4963576;28;20031;-77
2021/03/05 08:40:44;;;;;;;6.88;2.70;;;;;;;6.97;70.21;102149.06;4969412;28;20042;-77
2021/03/05 08:43:10;;;;;;;9.88;3.35;;;;;;;7.56;66.95;102147.47;4964497;28;20090;-76
2021/03/05 08:45:42;;;;;;;8.48;2.80;;;;;;;7.92;64.53;102154.53;4965321;28;20034;-75
2021/03/05 08:48:08;;;;;;;9.73;2.60;;;;;;;7.63;65.68;102146.00;4965032;28;20203;-77
2021/03/05 08:50:38;;;;;;;4.93;2.00;;;;;;;7.43;63.17;102151.75;4966353;28;20531;-78
2021/03/05 08:53:06;;;;;;;8.73;1.80;;;;;;;7.54;64.51;102153.16;4977848;28;20038;-76
2021/03/05 08:55:35;;;;;;;9.77;3.88;;;;;;;8.22;62.94;102163.84;4962578;28;20085;-77
2021/03/05 08:58:01;;;;;;;11.48;4.55;;;;;;;8.60;61.55;102164.34;4958273;28;20023;-77
2021/03/05 09:00:32;;;;;;;19.30;7.43;;;;;;;8.52;59.55;102168.56;4958896;28;20060;-77
2021/03/05 09:03:06;;;;;;;22.60;8.40;;;;;;;8.90;57.30;102167.09;4966554;28;20031;-77
2021/03/05 09:05:34;;;;;;;20.75;9.07;;;;;;;8.99;57.29;102164.47;4964296;28;20286;-77
2021/03/05 09:08:01;;;;;;;29.73;11.30;;;;;;;8.97;57.32;102166.69;4960096;28;20135;-77
2021/03/05 09:10:40;;;;;;;26.48;10.05;;;;;;;8.60;56.52;102170.50;4962830;28;20031;-77
2021/03/05 09:13:06;;;;;;;29.77;11.13;;;;;;;8.61;55.68;102166.75;4964829;28;20050;-77
2021/03/05 09:15:46;;;;;;;27.60;12.43;;;;;;;9.01;55.75;102175.72;4962528;28;20039;-77
2021/03/05 09:18:15;;;;;;;28.73;10.80;;;;;;;9.37;54.14;102183.69;4956489;28;20027;-78
2021/03/05 09:20:55;;;;;;;17.88;7.65;;;;;;;9.62;53.36;102172.25;4962231;28;20553;-78
2021/03/05 09:23:22;;;;;;;17.02;7.05;;;;;;;9.95;52.79;102173.47;4961055;28;20035;-78
2021/03/05 09:25:52;;;;;;;22.92;7.13;;;;;;;10.07;52.40;102187.13;4963567;28;20530;-77
2021/03/05 09:28:20;;;;;;;8.63;4.90;;;;;;;10.14;51.44;102186.69;4964642;28;20077;-78
2021/03/05 09:30:47;;;;;;;9.15;4.03;;;;;;;10.13;51.22;102175.13;4960770;28;20054;-77
2021/03/05 09:33:13;;;;;;;8.10;4.50;;;;;;;10.61;49.71;102181.19;4957934;28;20489;-77
2021/03/05 09:35:38;;;;;;;7.07;3.20;;;;;;;10.66;48.40;102186.44;4963505;28;20258;-78
2021/03/05 09:38:04;;;;;;;6.18;2.80;;;;;;;10.63;48.68;102188.97;4956465;28;20042;-77
2021/03/05 09:40:30;;;;;;;7.93;2.78;;;;;;;11.01;48.30;102198.00;4959307;28;20030;-77
2021/03/05 09:42:57;;;;;;;7.40;2.85;;;;;;;11.24;48.59;102190.50;4959786;28;20072;-77
2021/03/05 09:45:39;;;;;;;7.80;2.38;;;;;;;11.34;47.84;102188.22;4960762;28;20038;-77
2021/03/05 09:48:07;;;;;;;12.63;2.17;;;;;;;11.58;46.62;102203.88;4968584;28;20142;-77
2021/03/05 09:50:33;;;;;;;2.70;1.40;;;;;;;11.44;45.32;102212.16;4964501;28;20031;-77
2021/03/05 09:53:22;;;;;;;3.30;1.33;;;;;;;11.55;44.60;102207.22;4966352;28;20109;-77
2021/03/05 09:55:55;;;;;;;0.70;0.70;;;;;;;11.44;43.74;102203.31;4979044;28;20065;-77
2021/03/05 09:58:21;;;;;;;3.63;1.30;;;;;;;11.65;43.71;102210.38;4961395;28;20031;-77
2021/03/05 10:00:47;;;;;;;2.05;1.15;;;;;;;11.67;42.95;102207.38;4969438;28;20085;-77
2021/03/05 10:03:14;;;;;;;3.80;1.02;;;;;;;11.39;41.88;102211.56;4965516;28;20058;-77
2021/03/05 10:05:42;;;;;;;1.45;1.05;;;;;;;11.25;42.22;102217.13;4970841;28;20070;-77
2021/03/05 10:08:10;;;;;;;1.70;0.93;;;;;;;11.32;41.90;102211.25;4962920;28;20038;-77
2021/03/05 10:11:06;;;;;;;1.80;1.00;;;;;;;11.29;41.83;102207.28;4963957;28;20070;-78
2021/03/05 10:13:42;;;;;;;2.63;0.90;;;;;;;11.28;41.08;102213.00;4969659;28;20090;-78
2021/03/05 10:16:22;;;;;;;1.52;0.75;;;;;;;11.38;41.48;102218.84;4966015;28;20045;-77
2021/03/05 10:18:50;;;;;;;2.72;1.20;;;;;;;11.26;41.75;102223.31;4960150;28;20452;-77
2021/03/05 10:21:17;;;;;;;4.47;1.20;;;;;;;11.33;41.27;102218.22;4962254;28;20027;-76
2021/03/05 10:23:44;;;;;;;6.70;1.60;;;;;;;11.38;41.21;102231.56;4966414;28;20106;-77
2021/03/05 10:26:21;;;;;;;3.97;1.25;;;;;;;11.47;40.84;102232.31;4965821;28;20812;-77
2021/03/05 10:28:56;;;;;;;4.60;0.90;;;;;;;11.49;40.82;102233.59;4959940;28;20070;-77
2021/03/05 10:31:37;;;;;;;1.90;0.60;;;;;;;11.43;39.60;102234.06;4969266;28;20062;-77
2021/03/05 10:34:03;;;;;;;;;;;;;;;11.40;39.27;102234.72;4964282;28;20038;-77
2021/03/05 10:36:28;;;;;;;2.60;0.80;;;;;;;11.27;38.79;102236.47;4964396;28;20299;-77
2021/03/05 10:38:54;;;;;;;5.00;0.80;;;;;;;11.36;38.71;102237.25;4967114;28;20827;-77
2021/03/05 10:41:19;;;;;;;6.85;0.80;;;;;;;11.35;39.55;102248.38;4965000;28;20035;-78
2021/03/05 10:43:45;;;;;;;2.47;0.93;;;;;;;11.36;39.26;102247.28;4966207;28;20698;-78
2021/03/05 10:46:10;;;;;;;2.40;0.80;;;;;;;11.51;38.74;102244.06;4959567;28;20039;-76
2021/03/05 10:48:36;;;;;;;0.98;0.60;;;;;;;11.48;38.85;102239.28;4962105;28;20072;-77
2021/03/05 10:51:01;;;;;;;1.15;0.68;;;;;;;11.18;38.67;102248.41;4959198;28;20381;-78
2021/03/05 10:53:26;;;;;;;1.75;0.70;;;;;;;11.33;38.26;102251.38;4963717;28;20518;-77
2021/03/05 10:55:52;;;;;;;1.38;0.70;;;;;;;11.48;38.41;102250.06;4963278;28;20712;-77
2021/03/05 10:58:18;;;;;;;1.35;0.70;;;;;;;11.55;38.06;102248.50;4962045;28;20046;-77
2021/03/05 11:00:45;;;;;;;4.05;0.70;;;;;;;11.66;38.19;102249.75;4981370;28;20027;-76
2021/03/05 11:03:11;;;;;;;3.70;0.85;;;;;;;11.39;37.57;102258.22;4960446;28;20030;-78
2021/03/05 11:05:36;;;;;;;0.98;0.65;;;;;;;11.37;38.28;102265.81;4964328;28;20042;-77
2021/03/05 11:08:02;;;;;;;2.75;0.68;;;;;;;11.56;36.81;102254.66;4964991;28;20093;-76
2021/03/05 11:10:27;;;;;;;3.35;0.93;;;;;;;11.49;36.93;102254.38;4958587;28;20027;-77
2021/03/05 11:12:53;;;;;;;1.65;0.70;;;;;;;11.51;36.86;102262.94;4964755;28;20525;-77
2021/03/05 11:15:19;;;;;;;1.70;0.57;;;;;;;11.10;34.37;102257.28;4959702;28;20039;-77
2021/03/05 11:17:45;;;;;;;1.77;0.50;;;;;;;11.20;35.01;102263.16;4957309;28;20030;-77
2021/03/05 11:20:11;;;;;;;1.27;0.60;;;;;;;11.21;35.44;102264.72;4966077;28;20550;-77
2021/03/05 11:22:38;;;;;;;4.82;0.80;;;;;;;11.14;35.40;102253.63;4961691;28;20046;-77
2021/03/05 11:25:25;;;;;;;3.92;0.50;;;;;;;11.17;35.37;102250.28;4966444;28;21050;-76
2021/03/05 11:27:50;;;;;;;1.00;0.63;;;;;;;11.31;35.54;102250.13;4942769;28;20051;-77
2021/03/05 11:30:16;;;;;;;2.60;0.90;;;;;;;11.08;35.69;102248.72;4943859;29;20062;-78
2021/03/05 11:32:42;;;;;;;1.95;0.73;;;;;;;10.88;35.16;102252.84;4943074;29;20055;-77
2021/03/05 11:35:08;;;;;;;2.75;0.80;;;;;;;11.07;35.02;102247.16;4927763;29;20029;-76
2021/03/05 11:37:34;;;;;;;1.20;0.60;;;;;;;11.21;34.57;102253.94;4946919;29;20031;-76